sensor_id;sensor_type;location;lat;lon;timestamp;temperature;humidity
12655;DHT22;6392;44.644;11.448;2023-09-19T00:00:16;24.50;99.90
12655;DHT22;6392;44.644;11.448;2023-09-19T00:02:45;24.50;99.90
12655;DHT22;6392;44.644;11.448;2023-09-19T00:05:13;24.40;99.90
12655;DHT22;6392;44.644;11.448;2023-09-19T00:07:40;24.40;99.90
12655;DHT22;6392;44.644;11.448;2023-09-19T00:10:07;24.40;99.90
12655;DHT22;6392;44.644;11.448;2023-09-19T00:12:35;24.40;99.90
12655;DHT22;6392;44.644;11.448;2023-09-19T00:15:04;24.40;99.90
12655;DHT22;6392;44.644;11.448;2023-09-19T00:17:32;24.30;99.90
12655;DHT22;6392;44.644;11.448;2023-09-19T00:20:00;24.30;99.90
12655;DHT22;6392;44.644;11.448;2023-09-19T00:22:40;24.30;99.90
12655;DHT22;6392;44.644;11.448;2023-09-19T00:25:08;24.20;99.90
12655;DHT22;6392;44.644;11.448;2023-09-19T00:27:37;24.20;99.90
12655;DHT22;6392;44.644;11.448;2023-09-19T00:30:10;24.20;99.90
12655;DHT22;6392;44.644;11.448;2023-09-19T00:32:41;24.20;99.90
12655;DHT22;6392;44.644;11.448;2023-09-19T00:35:09;24.20;99.90
12655;DHT22;6392;44.644;11.448;2023-09-19T00:37:37;24.20;99.90
12655;DHT22;6392;44.644;11.448;2023-09-19T00:40:06;24.20;99.90
12655;DHT22;6392;44.644;11.448;2023-09-19T00:42:36;24.20;99.90
12655;DHT22;6392;44.644;11.448;2023-09-19T00:45:04;24.20;99.90
12655;DHT22;6392;44.644;11.448;2023-09-19T00:47:33;24.20;99.90
12655;DHT22;6392;44.644;11.448;2023-09-19T00:50:00;24.10;99.90
12655;DHT22;6392;44.644;11.448;2023-09-19T00:52:28;23.90;99.90
12655;DHT22;6392;44.644;11.448;2023-09-19T00:54:56;23.90;99.90
12655;DHT22;6392;44.644;11.448;2023-09-19T00:57:23;23.80;99.90
12655;DHT22;6392;44.644;11.448;2023-09-19T00:59:52;23.80;99.90
12655;DHT22;6392;44.644;11.448;2023-09-19T01:02:21;23.70;99.90
12655;DHT22;6392;44.644;11.448;2023-09-19T01:04:49;23.70;99.90
12655;DHT22;6392;44.644;11.448;2023-09-19T01:07:17;23.70;99.90
12655;DHT22;6392;44.644;11.448;2023-09-19T01:09:44;23.60;99.90
12655;DHT22;6392;44.644;11.448;2023-09-19T01:12:16;23.60;99.90
12655;DHT22;6392;44.644;11.448;2023-09-19T01:14:52;23.60;99.90
12655;DHT22;6392;44.644;11.448;2023-09-19T01:17:27;23.50;99.90
12655;DHT22;6392;44.644;11.448;2023-09-19T01:20:20;23.50;99.90
12655;DHT22;6392;44.644;11.448;2023-09-19T01:23:03;23.50;99.90
12655;DHT22;6392;44.644;11.448;2023-09-19T01:26:05;23.40;99.90
12655;DHT22;6392;44.644;11.448;2023-09-19T01:31:31;23.30;99.90
12655;DHT22;6392;44.644;11.448;2023-09-19T01:34:00;23.20;99.90
12655;DHT22;6392;44.644;11.448;2023-09-19T01:36:31;23.10;99.90
12655;DHT22;6392;44.644;11.448;2023-09-19T01:39:04;23.00;99.90
12655;DHT22;6392;44.644;11.448;2023-09-19T01:44:29;22.90;99.90
12655;DHT22;6392;44.644;11.448;2023-09-19T01:47:02;22.80;99.90
12655;DHT22;6392;44.644;11.448;2023-09-19T01:49:36;22.90;99.90
12655;DHT22;6392;44.644;11.448;2023-09-19T01:52:10;22.90;99.90
12655;DHT22;6392;44.644;11.448;2023-09-19T01:54:45;22.90;99.90
12655;DHT22;6392;44.644;11.448;2023-09-19T01:57:17;22.90;99.90
12655;DHT22;6392;44.644;11.448;2023-09-19T01:59:52;23.00;99.90
12655;DHT22;6392;44.644;11.448;2023-09-19T02:02:24;23.00;99.90
12655;DHT22;6392;44.644;11.448;2023-09-19T02:04:51;23.00;99.90
12655;DHT22;6392;44.644;11.448;2023-09-19T02:07:22;23.10;99.90
12655;DHT22;6392;44.644;11.448;2023-09-19T02:09:49;23.10;99.90
12655;DHT22;6392;44.644;11.448;2023-09-19T02:12:16;23.00;99.90
12655;DHT22;6392;44.644;11.448;2023-09-19T02:14:43;23.00;99.90
12655;DHT22;6392;44.644;11.448;2023-09-19T02:17:10;22.90;99.90
12655;DHT22;6392;44.644;11.448;2023-09-19T02:19:39;22.80;99.90
12655;DHT22;6392;44.644;11.448;2023-09-19T02:22:07;22.80;99.90
12655;DHT22;6392;44.644;11.448;2023-09-19T02:24:36;22.70;99.90
12655;DHT22;6392;44.644;11.448;2023-09-19T02:27:04;22.70;99.90
12655;DHT22;6392;44.644;11.448;2023-09-19T02:29:33;22.70;99.90
12655;DHT22;6392;44.644;11.448;2023-09-19T02:32:00;22.60;99.90
12655;DHT22;6392;44.644;11.448;2023-09-19T02:34:28;22.60;99.90
12655;DHT22;6392;44.644;11.448;2023-09-19T02:36:57;22.50;99.90
12655;DHT22;6392;44.644;11.448;2023-09-19T02:39:24;22.50;99.90
12655;DHT22;6392;44.644;11.448;2023-09-19T02:41:51;22.50;99.90
12655;DHT22;6392;44.644;11.448;2023-09-19T02:44:18;22.40;99.90
12655;DHT22;6392;44.644;11.448;2023-09-19T02:46:45;22.20;99.90
12655;DHT22;6392;44.644;11.448;2023-09-19T02:49:13;22.10;99.90
12655;DHT22;6392;44.644;11.448;2023-09-19T02:51:40;22.00;99.90
12655;DHT22;6392;44.644;11.448;2023-09-19T02:54:09;21.90;99.90
12655;DHT22;6392;44.644;11.448;2023-09-19T02:56:37;21.80;99.90
12655;DHT22;6392;44.644;11.448;2023-09-19T02:59:04;21.70;99.90
12655;DHT22;6392;44.644;11.448;2023-09-19T03:01:33;21.70;99.90
12655;DHT22;6392;44.644;11.448;2023-09-19T03:04:00;21.70;99.90
12655;DHT22;6392;44.644;11.448;2023-09-19T03:06:28;21.70;99.90
12655;DHT22;6392;44.644;11.448;2023-09-19T03:08:56;21.80;99.90
12655;DHT22;6392;44.644;11.448;2023-09-19T03:11:27;21.80;99.90
12655;DHT22;6392;44.644;11.448;2023-09-19T03:13:54;21.80;99.90
12655;DHT22;6392;44.644;11.448;2023-09-19T03:16:21;21.80;99.90
12655;DHT22;6392;44.644;11.448;2023-09-19T03:18:48;21.80;99.90
12655;DHT22;6392;44.644;11.448;2023-09-19T03:21:16;21.80;99.90
12655;DHT22;6392;44.644;11.448;2023-09-19T03:23:44;21.90;99.90
12655;DHT22;6392;44.644;11.448;2023-09-19T03:26:12;21.90;99.90
12655;DHT22;6392;44.644;11.448;2023-09-19T03:28:41;22.00;99.90
12655;DHT22;6392;44.644;11.448;2023-09-19T03:31:09;21.90;99.90
12655;DHT22;6392;44.644;11.448;2023-09-19T03:33:36;21.90;99.90
12655;DHT22;6392;44.644;11.448;2023-09-19T03:36:04;21.90;99.90
12655;DHT22;6392;44.644;11.448;2023-09-19T03:38:32;22.00;99.90
12655;DHT22;6392;44.644;11.448;2023-09-19T03:41:00;22.00;99.90
12655;DHT22;6392;44.644;11.448;2023-09-19T03:43:27;22.00;99.90
12655;DHT22;6392;44.644;11.448;2023-09-19T03:45:55;22.00;99.90
12655;DHT22;6392;44.644;11.448;2023-09-19T03:48:23;22.00;99.90
12655;DHT22;6392;44.644;11.448;2023-09-19T03:50:50;22.00;99.90
12655;DHT22;6392;44.644;11.448;2023-09-19T03:53:18;22.00;99.90
12655;DHT22;6392;44.644;11.448;2023-09-19T03:55:45;22.00;99.90
12655;DHT22;6392;44.644;11.448;2023-09-19T03:58:12;22.00;99.90
12655;DHT22;6392;44.644;11.448;2023-09-19T04:00:40;21.90;99.90
12655;DHT22;6392;44.644;11.448;2023-09-19T04:03:08;21.90;99.90
12655;DHT22;6392;44.644;11.448;2023-09-19T04:05:44;21.80;99.90
12655;DHT22;6392;44.644;11.448;2023-09-19T04:08:11;21.80;99.90
12655;DHT22;6392;44.644;11.448;2023-09-19T04:10:38;21.80;99.90
12655;DHT22;6392;44.644;11.448;2023-09-19T04:13:05;21.80;99.90
12655;DHT22;6392;44.644;11.448;2023-09-19T04:15:33;21.80;99.90
12655;DHT22;6392;44.644;11.448;2023-09-19T04:18:00;21.70;99.90
12655;DHT22;6392;44.644;11.448;2023-09-19T04:20:30;21.70;99.90
12655;DHT22;6392;44.644;11.448;2023-09-19T04:22:57;21.80;99.90
12655;DHT22;6392;44.644;11.448;2023-09-19T04:25:25;21.70;99.90
12655;DHT22;6392;44.644;11.448;2023-09-19T04:27:53;21.70;99.90
12655;DHT22;6392;44.644;11.448;2023-09-19T04:30:20;21.70;99.90
12655;DHT22;6392;44.644;11.448;2023-09-19T04:32:47;21.60;99.90
12655;DHT22;6392;44.644;11.448;2023-09-19T04:35:16;21.50;99.90
12655;DHT22;6392;44.644;11.448;2023-09-19T04:37:44;21.40;99.90
12655;DHT22;6392;44.644;11.448;2023-09-19T04:40:12;21.40;99.90
12655;DHT22;6392;44.644;11.448;2023-09-19T04:42:42;21.50;99.90
12655;DHT22;6392;44.644;11.448;2023-09-19T04:45:10;21.50;99.90
12655;DHT22;6392;44.644;11.448;2023-09-19T04:47:37;21.50;99.90
12655;DHT22;6392;44.644;11.448;2023-09-19T04:50:07;21.50;99.90
12655;DHT22;6392;44.644;11.448;2023-09-19T04:52:39;21.50;99.90
12655;DHT22;6392;44.644;11.448;2023-09-19T04:55:09;21.60;99.90
12655;DHT22;6392;44.644;11.448;2023-09-19T04:57:43;21.60;99.90
12655;DHT22;6392;44.644;11.448;2023-09-19T05:00:12;21.60;99.90
12655;DHT22;6392;44.644;11.448;2023-09-19T05:02:40;21.50;99.90
12655;DHT22;6392;44.644;11.448;2023-09-19T05:05:08;21.40;99.90
12655;DHT22;6392;44.644;11.448;2023-09-19T05:07:36;21.40;99.90
12655;DHT22;6392;44.644;11.448;2023-09-19T05:10:04;21.30;99.90
12655;DHT22;6392;44.644;11.448;2023-09-19T05:12:34;21.30;99.90
12655;DHT22;6392;44.644;11.448;2023-09-19T05:15:02;21.30;99.90
12655;DHT22;6392;44.644;11.448;2023-09-19T05:17:29;21.30;99.90
12655;DHT22;6392;44.644;11.448;2023-09-19T05:19:56;21.20;99.90
12655;DHT22;6392;44.644;11.448;2023-09-19T05:22:26;21.20;99.90
12655;DHT22;6392;44.644;11.448;2023-09-19T05:24:53;21.20;99.90
12655;DHT22;6392;44.644;11.448;2023-09-19T05:27:20;21.20;99.90
12655;DHT22;6392;44.644;11.448;2023-09-19T05:29:49;21.20;99.90
12655;DHT22;6392;44.644;11.448;2023-09-19T05:32:19;21.20;99.90
12655;DHT22;6392;44.644;11.448;2023-09-19T05:34:46;21.20;99.90
12655;DHT22;6392;44.644;11.448;2023-09-19T05:37:13;21.20;99.90
12655;DHT22;6392;44.644;11.448;2023-09-19T05:39:42;21.20;99.90
12655;DHT22;6392;44.644;11.448;2023-09-19T05:42:09;21.20;99.90
12655;DHT22;6392;44.644;11.448;2023-09-19T05:44:36;21.20;99.90
12655;DHT22;6392;44.644;11.448;2023-09-19T05:47:05;21.20;99.90
12655;DHT22;6392;44.644;11.448;2023-09-19T05:49:34;21.20;99.90
12655;DHT22;6392;44.644;11.448;2023-09-19T05:52:04;21.20;99.90
12655;DHT22;6392;44.644;11.448;2023-09-19T05:54:31;21.30;99.90
12655;DHT22;6392;44.644;11.448;2023-09-19T05:56:58;21.30;99.90
12655;DHT22;6392;44.644;11.448;2023-09-19T05:59:25;21.40;99.90
12655;DHT22;6392;44.644;11.448;2023-09-19T06:01:52;21.40;99.90
12655;DHT22;6392;44.644;11.448;2023-09-19T06:04:21;21.50;99.90
12655;DHT22;6392;44.644;11.448;2023-09-19T06:06:48;21.60;99.90
12655;DHT22;6392;44.644;11.448;2023-09-19T06:09:15;21.70;99.90
12655;DHT22;6392;44.644;11.448;2023-09-19T06:11:43;21.70;99.90
12655;DHT22;6392;44.644;11.448;2023-09-19T06:14:10;21.80;99.90
12655;DHT22;6392;44.644;11.448;2023-09-19T06:16:37;21.90;99.90
12655;DHT22;6392;44.644;11.448;2023-09-19T06:19:05;22.00;99.90
12655;DHT22;6392;44.644;11.448;2023-09-19T06:21:36;22.10;99.90
12655;DHT22;6392;44.644;11.448;2023-09-19T06:24:03;22.10;99.90
12655;DHT22;6392;44.644;11.448;2023-09-19T06:26:30;22.20;99.90
12655;DHT22;6392;44.644;11.448;2023-09-19T06:28:58;22.30;99.90
12655;DHT22;6392;44.644;11.448;2023-09-19T06:31:25;22.30;99.90
12655;DHT22;6392;44.644;11.448;2023-09-19T06:33:52;22.40;99.90
12655;DHT22;6392;44.644;11.448;2023-09-19T06:36:19;22.40;99.90
12655;DHT22;6392;44.644;11.448;2023-09-19T06:38:49;22.50;99.90
12655;DHT22;6392;44.644;11.448;2023-09-19T06:41:16;22.60;99.90
12655;DHT22;6392;44.644;11.448;2023-09-19T06:43:44;22.60;99.90
12655;DHT22;6392;44.644;11.448;2023-09-19T06:46:11;22.70;99.90
12655;DHT22;6392;44.644;11.448;2023-09-19T06:48:38;22.80;99.90
12655;DHT22;6392;44.644;11.448;2023-09-19T06:51:06;22.80;99.90
12655;DHT22;6392;44.644;11.448;2023-09-19T06:53:34;22.90;99.90
12655;DHT22;6392;44.644;11.448;2023-09-19T06:56:03;22.90;99.90
12655;DHT22;6392;44.644;11.448;2023-09-19T06:58:32;23.00;99.90
12655;DHT22;6392;44.644;11.448;2023-09-19T07:00:59;23.00;99.90
12655;DHT22;6392;44.644;11.448;2023-09-19T07:03:26;23.10;99.90
12655;DHT22;6392;44.644;11.448;2023-09-19T07:05:54;23.20;99.90
12655;DHT22;6392;44.644;11.448;2023-09-19T07:08:21;23.20;99.90
12655;DHT22;6392;44.644;11.448;2023-09-19T07:10:48;23.30;99.90
12655;DHT22;6392;44.644;11.448;2023-09-19T07:13:19;23.30;99.90
12655;DHT22;6392;44.644;11.448;2023-09-19T07:15:46;23.30;99.90
12655;DHT22;6392;44.644;11.448;2023-09-19T07:18:16;23.40;99.90
12655;DHT22;6392;44.644;11.448;2023-09-19T07:20:44;23.40;99.90
12655;DHT22;6392;44.644;11.448;2023-09-19T07:23:14;23.50;99.90
12655;DHT22;6392;44.644;11.448;2023-09-19T07:25:43;23.50;99.90
12655;DHT22;6392;44.644;11.448;2023-09-19T07:28:12;23.60;99.90
12655;DHT22;6392;44.644;11.448;2023-09-19T07:30:41;23.60;99.90
12655;DHT22;6392;44.644;11.448;2023-09-19T07:33:08;23.70;99.90
12655;DHT22;6392;44.644;11.448;2023-09-19T07:35:37;23.70;99.90
12655;DHT22;6392;44.644;11.448;2023-09-19T07:38:06;23.80;99.90
12655;DHT22;6392;44.644;11.448;2023-09-19T07:40:33;23.80;99.90
12655;DHT22;6392;44.644;11.448;2023-09-19T07:43:00;23.90;99.90
12655;DHT22;6392;44.644;11.448;2023-09-19T07:45:29;23.90;99.90
12655;DHT22;6392;44.644;11.448;2023-09-19T07:47:58;24.00;99.90
12655;DHT22;6392;44.644;11.448;2023-09-19T07:50:29;24.00;99.90
12655;DHT22;6392;44.644;11.448;2023-09-19T07:52:57;24.00;99.90
12655;DHT22;6392;44.644;11.448;2023-09-19T07:55:24;24.00;99.90
12655;DHT22;6392;44.644;11.448;2023-09-19T07:57:52;24.00;99.90
12655;DHT22;6392;44.644;11.448;2023-09-19T08:00:19;24.10;99.90
12655;DHT22;6392;44.644;11.448;2023-09-19T08:02:46;24.10;99.90
12655;DHT22;6392;44.644;11.448;2023-09-19T08:05:15;24.10;99.90
12655;DHT22;6392;44.644;11.448;2023-09-19T08:07:43;24.20;99.90
12655;DHT22;6392;44.644;11.448;2023-09-19T08:10:14;24.20;99.90
12655;DHT22;6392;44.644;11.448;2023-09-19T08:12:42;24.20;99.90
12655;DHT22;6392;44.644;11.448;2023-09-19T08:15:13;24.20;99.90
12655;DHT22;6392;44.644;11.448;2023-09-19T08:17:40;24.20;99.90
12655;DHT22;6392;44.644;11.448;2023-09-19T08:20:08;24.20;99.90
12655;DHT22;6392;44.644;11.448;2023-09-19T08:22:43;24.20;99.90
12655;DHT22;6392;44.644;11.448;2023-09-19T08:25:12;24.30;99.90
12655;DHT22;6392;44.644;11.448;2023-09-19T08:27:39;24.30;99.90
12655;DHT22;6392;44.644;11.448;2023-09-19T08:30:07;24.30;99.90
12655;DHT22;6392;44.644;11.448;2023-09-19T08:32:34;24.30;99.90
12655;DHT22;6392;44.644;11.448;2023-09-19T08:35:01;24.30;99.90
12655;DHT22;6392;44.644;11.448;2023-09-19T08:37:30;24.30;99.90
12655;DHT22;6392;44.644;11.448;2023-09-19T08:39:59;24.40;99.90
12655;DHT22;6392;44.644;11.448;2023-09-19T08:42:26;24.40;99.90
12655;DHT22;6392;44.644;11.448;2023-09-19T08:44:55;24.40;99.90
12655;DHT22;6392;44.644;11.448;2023-09-19T08:47:33;24.50;99.90
12655;DHT22;6392;44.644;11.448;2023-09-19T08:50:05;24.50;99.90
12655;DHT22;6392;44.644;11.448;2023-09-19T08:52:41;24.60;99.90
12655;DHT22;6392;44.644;11.448;2023-09-19T08:55:12;24.60;99.90
12655;DHT22;6392;44.644;11.448;2023-09-19T08:57:46;24.60;99.90
12655;DHT22;6392;44.644;11.448;2023-09-19T09:00:15;24.70;99.90
12655;DHT22;6392;44.644;11.448;2023-09-19T09:02:44;24.80;99.90
12655;DHT22;6392;44.644;11.448;2023-09-19T09:05:13;24.90;99.90
12655;DHT22;6392;44.644;11.448;2023-09-19T09:07:42;24.90;99.90
12655;DHT22;6392;44.644;11.448;2023-09-19T09:10:11;24.90;99.90
12655;DHT22;6392;44.644;11.448;2023-09-19T09:12:39;24.90;99.90
12655;DHT22;6392;44.644;11.448;2023-09-19T09:15:07;25.00;99.90
12655;DHT22;6392;44.644;11.448;2023-09-19T09:17:37;25.00;99.90
12655;DHT22;6392;44.644;11.448;2023-09-19T09:20:05;24.90;99.90
12655;DHT22;6392;44.644;11.448;2023-09-19T09:22:36;24.90;99.90
12655;DHT22;6392;44.644;11.448;2023-09-19T09:25:06;25.00;99.90
12655;DHT22;6392;44.644;11.448;2023-09-19T09:27:35;25.00;99.90
12655;DHT22;6392;44.644;11.448;2023-09-19T09:30:02;25.10;99.90
12655;DHT22;6392;44.644;11.448;2023-09-19T09:32:30;25.10;99.90
12655;DHT22;6392;44.644;11.448;2023-09-19T09:35:01;25.10;99.90
12655;DHT22;6392;44.644;11.448;2023-09-19T09:37:30;25.10;99.90
12655;DHT22;6392;44.644;11.448;2023-09-19T09:39:59;25.10;99.90
12655;DHT22;6392;44.644;11.448;2023-09-19T09:42:46;25.10;99.90
12655;DHT22;6392;44.644;11.448;2023-09-19T09:45:17;25.10;99.90
12655;DHT22;6392;44.644;11.448;2023-09-19T09:47:46;25.20;99.90
12655;DHT22;6392;44.644;11.448;2023-09-19T09:50:29;25.20;99.90
12655;DHT22;6392;44.644;11.448;2023-09-19T09:53:19;25.20;99.90
12655;DHT22;6392;44.644;11.448;2023-09-19T09:56:01;25.20;99.90
12655;DHT22;6392;44.644;11.448;2023-09-19T09:58:32;25.20;99.90
12655;DHT22;6392;44.644;11.448;2023-09-19T10:01:01;25.30;99.90
12655;DHT22;6392;44.644;11.448;2023-09-19T10:03:35;25.30;99.90
12655;DHT22;6392;44.644;11.448;2023-09-19T10:06:07;25.40;99.90
12655;DHT22;6392;44.644;11.448;2023-09-19T10:09:01;25.50;99.90
12655;DHT22;6392;44.644;11.448;2023-09-19T10:11:44;25.60;99.90
12655;DHT22;6392;44.644;11.448;2023-09-19T10:14:15;25.60;99.90
12655;DHT22;6392;44.644;11.448;2023-09-19T10:16:46;25.70;99.90
12655;DHT22;6392;44.644;11.448;2023-09-19T10:19:17;25.70;99.90
12655;DHT22;6392;44.644;11.448;2023-09-19T10:21:48;25.70;99.90
12655;DHT22;6392;44.644;11.448;2023-09-19T10:24:18;25.70;99.90
12655;DHT22;6392;44.644;11.448;2023-09-19T10:26:46;25.70;99.90
12655;DHT22;6392;44.644;11.448;2023-09-19T10:29:18;25.70;99.90
12655;DHT22;6392;44.644;11.448;2023-09-19T10:31:47;25.70;99.90
12655;DHT22;6392;44.644;11.448;2023-09-19T10:34:17;25.70;99.90
12655;DHT22;6392;44.644;11.448;2023-09-19T10:36:45;25.80;99.90
12655;DHT22;6392;44.644;11.448;2023-09-19T10:39:15;25.80;99.90
12655;DHT22;6392;44.644;11.448;2023-09-19T10:41:50;25.90;99.90
12655;DHT22;6392;44.644;11.448;2023-09-19T10:44:26;25.90;99.90
12655;DHT22;6392;44.644;11.448;2023-09-19T10:46:54;25.90;99.90
12655;DHT22;6392;44.644;11.448;2023-09-19T10:49:22;25.90;99.90
12655;DHT22;6392;44.644;11.448;2023-09-19T10:51:54;26.00;99.90
12655;DHT22;6392;44.644;11.448;2023-09-19T10:54:26;26.00;99.90
12655;DHT22;6392;44.644;11.448;2023-09-19T10:56:54;26.10;99.90
12655;DHT22;6392;44.644;11.448;2023-09-19T10:59:26;26.30;99.90
12655;DHT22;6392;44.644;11.448;2023-09-19T11:02:16;26.30;99.90
12655;DHT22;6392;44.644;11.448;2023-09-19T11:04:44;26.40;99.90
12655;DHT22;6392;44.644;11.448;2023-09-19T11:07:14;26.40;99.90
12655;DHT22;6392;44.644;11.448;2023-09-19T11:09:49;26.40;99.90
12655;DHT22;6392;44.644;11.448;2023-09-19T11:12:49;26.40;99.90
12655;DHT22;6392;44.644;11.448;2023-09-19T11:18:52;26.40;99.90
12655;DHT22;6392;44.644;11.448;2023-09-19T11:21:51;26.40;99.90
12655;DHT22;6392;44.644;11.448;2023-09-19T11:24:30;26.40;99.90
12655;DHT22;6392;44.644;11.448;2023-09-19T11:27:13;26.50;99.90
12655;DHT22;6392;44.644;11.448;2023-09-19T11:29:43;26.50;99.90
12655;DHT22;6392;44.644;11.448;2023-09-19T11:32:10;26.50;99.90
12655;DHT22;6392;44.644;11.448;2023-09-19T11:34:43;26.50;99.90
12655;DHT22;6392;44.644;11.448;2023-09-19T11:40:28;26.40;99.90
12655;DHT22;6392;44.644;11.448;2023-09-19T11:42:56;26.40;99.90
12655;DHT22;6392;44.644;11.448;2023-09-19T11:48:32;26.50;99.90
12655;DHT22;6392;44.644;11.448;2023-09-19T11:51:03;26.70;99.90
12655;DHT22;6392;44.644;11.448;2023-09-19T11:53:42;26.90;99.90
12655;DHT22;6392;44.644;11.448;2023-09-19T11:56:10;26.90;99.90
12655;DHT22;6392;44.644;11.448;2023-09-19T11:58:37;26.80;99.90
12655;DHT22;6392;44.644;11.448;2023-09-19T12:01:05;26.80;99.90
12655;DHT22;6392;44.644;11.448;2023-09-19T12:03:42;27.00;99.90
12655;DHT22;6392;44.644;11.448;2023-09-19T12:06:15;27.10;99.90
12655;DHT22;6392;44.644;11.448;2023-09-19T12:08:43;27.10;99.90
12655;DHT22;6392;44.644;11.448;2023-09-19T12:11:13;27.10;99.90
12655;DHT22;6392;44.644;11.448;2023-09-19T12:13:43;27.20;99.90
12655;DHT22;6392;44.644;11.448;2023-09-19T12:16:12;27.10;99.90
12655;DHT22;6392;44.644;11.448;2023-09-19T12:18:41;27.30;99.90
12655;DHT22;6392;44.644;11.448;2023-09-19T12:21:23;27.50;99.90
12655;DHT22;6392;44.644;11.448;2023-09-19T12:24:03;27.60;99.90
12655;DHT22;6392;44.644;11.448;2023-09-19T12:26:38;27.50;99.90
12655;DHT22;6392;44.644;11.448;2023-09-19T12:29:17;27.40;99.90
12655;DHT22;6392;44.644;11.448;2023-09-19T12:31:49;27.40;99.90
12655;DHT22;6392;44.644;11.448;2023-09-19T12:34:20;27.50;99.90
12655;DHT22;6392;44.644;11.448;2023-09-19T12:36:48;27.70;99.90
12655;DHT22;6392;44.644;11.448;2023-09-19T12:39:23;27.80;99.90
12655;DHT22;6392;44.644;11.448;2023-09-19T12:41:51;27.90;99.90
12655;DHT22;6392;44.644;11.448;2023-09-19T12:44:20;28.00;99.90
12655;DHT22;6392;44.644;11.448;2023-09-19T12:46:50;27.90;99.90
12655;DHT22;6392;44.644;11.448;2023-09-19T12:49:20;27.70;99.90
12655;DHT22;6392;44.644;11.448;2023-09-19T12:51:54;27.60;99.90
12655;DHT22;6392;44.644;11.448;2023-09-19T12:54:24;27.60;99.90
12655;DHT22;6392;44.644;11.448;2023-09-19T12:56:52;27.90;99.90
12655;DHT22;6392;44.644;11.448;2023-09-19T12:59:29;28.40;99.90
12655;DHT22;6392;44.644;11.448;2023-09-19T13:02:04;28.60;99.90
12655;DHT22;6392;44.644;11.448;2023-09-19T13:04:32;28.50;99.90
12655;DHT22;6392;44.644;11.448;2023-09-19T13:07:07;28.60;99.90
12655;DHT22;6392;44.644;11.448;2023-09-19T13:09:35;28.60;99.90
12655;DHT22;6392;44.644;11.448;2023-09-19T13:12:05;28.80;99.90
12655;DHT22;6392;44.644;11.448;2023-09-19T13:15:07;29.20;99.90
12655;DHT22;6392;44.644;11.448;2023-09-19T13:17:45;29.60;99.90
12655;DHT22;6392;44.644;11.448;2023-09-19T13:20:23;29.90;99.90
12655;DHT22;6392;44.644;11.448;2023-09-19T13:22:55;30.00;99.90
12655;DHT22;6392;44.644;11.448;2023-09-19T13:25:26;29.70;99.90
12655;DHT22;6392;44.644;11.448;2023-09-19T13:27:56;29.50;99.90
12655;DHT22;6392;44.644;11.448;2023-09-19T13:30:27;29.30;99.90
12655;DHT22;6392;44.644;11.448;2023-09-19T13:33:05;29.10;99.90
12655;DHT22;6392;44.644;11.448;2023-09-19T13:35:32;29.20;99.90
12655;DHT22;6392;44.644;11.448;2023-09-19T13:38:01;29.30;99.90
12655;DHT22;6392;44.644;11.448;2023-09-19T13:40:28;29.20;99.90
12655;DHT22;6392;44.644;11.448;2023-09-19T13:42:57;29.10;99.90
12655;DHT22;6392;44.644;11.448;2023-09-19T13:45:24;29.10;99.90
12655;DHT22;6392;44.644;11.448;2023-09-19T13:47:52;29.10;99.90
12655;DHT22;6392;44.644;11.448;2023-09-19T13:50:21;29.10;99.90
12655;DHT22;6392;44.644;11.448;2023-09-19T13:52:49;29.20;99.90
12655;DHT22;6392;44.644;11.448;2023-09-19T13:55:18;29.10;99.90
12655;DHT22;6392;44.644;11.448;2023-09-19T13:57:46;29.10;99.90
12655;DHT22;6392;44.644;11.448;2023-09-19T14:00:15;29.10;99.90
12655;DHT22;6392;44.644;11.448;2023-09-19T14:02:43;29.20;99.90
12655;DHT22;6392;44.644;11.448;2023-09-19T14:05:11;29.30;99.90
12655;DHT22;6392;44.644;11.448;2023-09-19T14:07:42;29.40;99.90
12655;DHT22;6392;44.644;11.448;2023-09-19T14:10:10;29.40;99.90
12655;DHT22;6392;44.644;11.448;2023-09-19T14:12:39;29.40;99.90
12655;DHT22;6392;44.644;11.448;2023-09-19T14:15:08;29.70;99.90
12655;DHT22;6392;44.644;11.448;2023-09-19T14:17:38;30.00;99.90
12655;DHT22;6392;44.644;11.448;2023-09-19T14:20:08;30.00;99.90
12655;DHT22;6392;44.644;11.448;2023-09-19T14:22:36;30.30;99.90
12655;DHT22;6392;44.644;11.448;2023-09-19T14:25:03;30.40;99.90
12655;DHT22;6392;44.644;11.448;2023-09-19T14:27:30;30.40;99.90
12655;DHT22;6392;44.644;11.448;2023-09-19T14:29:59;30.20;99.90
12655;DHT22;6392;44.644;11.448;2023-09-19T14:32:26;30.10;99.90
12655;DHT22;6392;44.644;11.448;2023-09-19T14:34:53;29.90;99.90
12655;DHT22;6392;44.644;11.448;2023-09-19T14:37:20;29.80;99.90
12655;DHT22;6392;44.644;11.448;2023-09-19T14:39:47;29.70;99.90
12655;DHT22;6392;44.644;11.448;2023-09-19T14:42:14;29.70;99.90
12655;DHT22;6392;44.644;11.448;2023-09-19T14:44:43;29.70;99.90
12655;DHT22;6392;44.644;11.448;2023-09-19T14:47:11;29.90;99.90
12655;DHT22;6392;44.644;11.448;2023-09-19T14:49:39;30.10;99.90
12655;DHT22;6392;44.644;11.448;2023-09-19T14:52:07;30.10;99.90
12655;DHT22;6392;44.644;11.448;2023-09-19T14:54:34;29.80;99.90
12655;DHT22;6392;44.644;11.448;2023-09-19T14:57:03;29.60;99.90
12655;DHT22;6392;44.644;11.448;2023-09-19T14:59:31;29.40;99.90
12655;DHT22;6392;44.644;11.448;2023-09-19T15:01:58;29.30;99.90
12655;DHT22;6392;44.644;11.448;2023-09-19T15:04:27;29.30;99.90
12655;DHT22;6392;44.644;11.448;2023-09-19T15:06:54;29.10;99.90
12655;DHT22;6392;44.644;11.448;2023-09-19T15:09:21;29.00;99.90
12655;DHT22;6392;44.644;11.448;2023-09-19T15:11:51;29.00;99.90
12655;DHT22;6392;44.644;11.448;2023-09-19T15:14:19;29.00;99.90
12655;DHT22;6392;44.644;11.448;2023-09-19T15:16:46;29.00;99.90
12655;DHT22;6392;44.644;11.448;2023-09-19T15:19:14;29.00;99.90
12655;DHT22;6392;44.644;11.448;2023-09-19T15:21:42;29.00;99.90
12655;DHT22;6392;44.644;11.448;2023-09-19T15:24:09;29.00;99.90
12655;DHT22;6392;44.644;11.448;2023-09-19T15:26:37;29.00;99.90
12655;DHT22;6392;44.644;11.448;2023-09-19T15:29:05;29.00;99.90
12655;DHT22;6392;44.644;11.448;2023-09-19T15:31:33;29.00;99.90
12655;DHT22;6392;44.644;11.448;2023-09-19T15:34:02;29.00;99.90
12655;DHT22;6392;44.644;11.448;2023-09-19T15:36:29;29.00;99.90
12655;DHT22;6392;44.644;11.448;2023-09-19T15:39:02;28.90;99.90
12655;DHT22;6392;44.644;11.448;2023-09-19T15:41:31;28.90;99.90
12655;DHT22;6392;44.644;11.448;2023-09-19T15:43:59;28.90;99.90
12655;DHT22;6392;44.644;11.448;2023-09-19T15:46:26;28.90;99.90
12655;DHT22;6392;44.644;11.448;2023-09-19T15:48:55;28.90;99.90
12655;DHT22;6392;44.644;11.448;2023-09-19T15:51:22;28.80;99.90
12655;DHT22;6392;44.644;11.448;2023-09-19T15:53:50;28.90;99.90
12655;DHT22;6392;44.644;11.448;2023-09-19T15:56:20;28.90;99.90
12655;DHT22;6392;44.644;11.448;2023-09-19T15:58:49;28.90;99.90
12655;DHT22;6392;44.644;11.448;2023-09-19T16:01:17;28.90;99.90